Time;durP1;ratioP1;P1;durP2;ratioP2;P2;SDS_P1;SDS_P2;PMS_P1;PMS_P2;Temp;Humidity;BMP_temperature;BMP_pressure;BME280_temperature;BME280_humidity;BME280_pressure;Samples;Min_cycle;Max_cycle;Signal;HPM_P1;HPM_P2
2023/01/26 00:02:04;;;;;;;94.95;46.30;;;;;;;0.43;100.00;100631.28;10489932;28;20442;-73
2023/01/26 00:07:06;;;;;;;95.53;44.40;;;;;;;0.36;100.00;100634.63;10497881;28;20117;-74
2023/01/26 00:12:07;;;;;;;100.35;47.17;;;;;;;0.22;100.00;100642.13;10499572;28;20047;-75
2023/01/26 00:17:09;;;;;;;107.72;46.65;;;;;;;0.19;100.00;100636.88;10507099;28;20056;-74
2023/01/26 00:22:10;;;;;;;113.22;47.60;;;;;;;0.12;100.00;100639.31;10508186;28;20036;-74
2023/01/26 00:27:12;;;;;;;110.25;46.92;;;;;;;0.18;100.00;100631.69;10507489;28;20044;-73
2023/01/26 00:32:14;;;;;;;111.65;46.78;;;;;;;0.07;100.00;100633.19;10506981;28;20401;-74
2023/01/26 00:37:15;;;;;;;100.63;43.13;;;;;;;0.03;100.00;100623.63;10506544;28;20048;-73
2023/01/26 00:42:17;;;;;;;113.70;44.53;;;;;;;-0.04;100.00;100618.34;10508408;28;20125;-73
2023/01/26 00:47:19;;;;;;;111.20;47.38;;;;;;;-0.05;100.00;100613.97;10507228;28;20154;-74
2023/01/26 00:52:21;;;;;;;121.60;47.15;;;;;;;-0.14;100.00;100606.03;10487735;28;20049;-74
2023/01/26 00:57:25;;;;;;;115.90;46.80;;;;;;;-0.13;100.00;100612.09;10488553;28;20238;-74
2023/01/26 01:02:27;;;;;;;123.13;48.15;;;;;;;-0.06;100.00;100608.78;10488118;28;20040;-73
2023/01/26 01:07:28;;;;;;;109.57;44.78;;;;;;;-0.13;100.00;100599.19;10505608;28;20055;-73
2023/01/26 01:12:30;;;;;;;119.75;45.95;;;;;;;-0.14;100.00;100607.75;10504739;28;20459;-73
2023/01/26 01:17:32;;;;;;;110.72;45.55;;;;;;;0.07;100.00;100602.16;10505110;28;20050;-73
2023/01/26 01:22:36;;;;;;;104.03;42.78;;;;;;;-0.05;100.00;100608.81;10487363;28;20051;-73
2023/01/26 01:27:38;;;;;;;107.82;42.22;;;;;;;0.04;100.00;100602.09;10505764;28;20056;-73
2023/01/26 01:32:40;;;;;;;101.63;39.85;;;;;;;-0.07;100.00;100601.88;10486720;28;20043;-73
2023/01/26 01:37:41;;;;;;;109.45;41.85;;;;;;;-0.16;100.00;100594.81;10504250;28;20044;-73
2023/01/26 01:42:47;;;;;;;108.00;41.55;;;;;;;0.11;100.00;100591.91;10485892;28;20036;-73
2023/01/26 01:47:49;;;;;;;109.15;43.10;;;;;;;0.09;100.00;100579.78;10487000;28;20041;-73
2023/01/26 01:52:54;;;;;;;113.35;43.78;;;;;;;-0.01;100.00;100571.84;10485458;28;20044;-73
2023/01/26 01:58:00;;;;;;;113.75;43.08;;;;;;;-0.07;100.00;100570.88;10503426;28;20511;-73
2023/01/26 02:03:14;;;;;;;111.70;42.47;;;;;;;-0.05;100.00;100558.84;10503489;28;20119;-73
2023/01/26 02:08:18;;;;;;;120.70;43.95;;;;;;;0.00;100.00;100557.25;10505351;28;20051;-74
2023/01/26 02:13:22;;;;;;;112.38;42.97;;;;;;;0.10;100.00;100556.56;10484477;28;20037;-75
2023/01/26 02:18:24;;;;;;;113.85;41.53;;;;;;;0.16;100.00;100545.47;10484792;28;20092;-74
2023/01/26 02:23:41;;;;;;;114.43;41.63;;;;;;;-0.01;100.00;100543.41;10502150;28;20032;-74
2023/01/26 02:28:46;;;;;;;110.93;41.38;;;;;;;0.05;100.00;100528.91;10484233;28;20044;-74
2023/01/26 02:33:48;;;;;;;118.53;42.70;;;;;;;0.08;100.00;100521.19;10502904;28;20041;-74
2023/01/26 02:39:19;;;;;;;128.00;45.35;;;;;;;0.23;100.00;100508.53;10482891;28;20045;-74
2023/01/26 02:44:21;;;;;;;149.20;48.53;;;;;;;-0.04;100.00;100504.63;10459438;28;20051;-74
2023/01/26 03:00:12;;;;;;;134.75;44.30;;;;;;;0.10;100.00;100481.59;10482676;28;20041;-74
2023/01/26 03:05:15;;;;;;;144.35;45.17;;;;;;;-0.07;100.00;100490.75;10500839;28;20044;-74
2023/01/26 03:10:17;;;;;;;138.18;42.97;;;;;;;0.11;100.00;100488.50;10481997;28;20051;-74
2023/01/26 03:15:41;;;;;;;126.38;40.40;;;;;;;0.20;100.00;100495.56;10483772;28;20497;-74
2023/01/26 03:31:28;;;;;;;139.32;45.03;;;;;;;0.24;100.00;100481.84;10481685;28;20056;-73
2023/01/26 03:36:30;;;;;;;135.57;42.95;;;;;;;0.06;100.00;100477.22;10500031;28;20124;-74
2023/01/26 03:57:36;;;;;;;151.35;46.10;;;;;;;0.01;100.00;100468.53;10483345;28;20041;-74
2023/01/26 04:08:22;;;;;;;124.07;38.90;;;;;;;-0.06;100.00;100452.00;10481237;28;20072;-74
2023/01/26 04:24:23;;;;;;;120.55;39.00;;;;;;;0.01;100.00;100446.97;10480997;28;20075;-74
2023/01/26 04:29:29;;;;;;;127.15;38.05;;;;;;;-0.08;100.00;100442.53;10480558;28;20049;-74
2023/01/26 04:34:31;;;;;;;120.65;38.78;;;;;;;-0.10;100.00;100439.88;10463184;28;20041;-74
2023/01/26 04:39:32;;;;;;;136.60;40.80;;;;;;;-0.03;100.00;100431.41;10482245;28;20135;-73
2023/01/26 04:44:34;;;;;;;120.40;38.08;;;;;;;-0.04;100.00;100428.81;10498131;28;20397;-73
2023/01/26 04:49:37;;;;;;;135.32;40.55;;;;;;;-0.19;100.00;100421.63;10481227;28;20094;-73
2023/01/26 04:54:40;;;;;;;116.95;36.63;;;;;;;-0.08;100.00;100421.84;10480354;28;20068;-73
2023/01/26 04:59:42;;;;;;;123.07;40.45;;;;;;;-0.15;100.00;100423.44;10502244;28;20041;-75
2023/01/26 05:04:44;;;;;;;121.60;40.35;;;;;;;-0.30;100.00;100415.41;10488122;28;20044;-74
2023/01/26 05:09:48;;;;;;;113.75;37.15;;;;;;;-0.27;100.00;100421.53;10488458;28;20140;-73
2023/01/26 05:15:17;;;;;;;129.65;38.70;;;;;;;-0.29;100.00;100432.66;10486846;28;20048;-73
2023/01/26 05:20:30;;;;;;;116.93;37.63;;;;;;;-0.12;100.00;100436.41;10504779;28;20044;-73
2023/01/26 05:25:42;;;;;;;119.40;37.63;;;;;;;-0.07;100.00;100437.38;10508410;28;20041;-73
2023/01/26 05:30:46;;;;;;;119.90;38.55;;;;;;;-0.23;100.00;100437.06;10486393;28;20052;-74
2023/01/26 05:35:49;;;;;;;104.47;34.85;;;;;;;-0.12;100.00;100440.72;10486448;28;20041;-73
2023/01/26 05:40:51;;;;;;;118.45;36.85;;;;;;;-0.13;100.00;100439.00;10486955;28;20048;-73
2023/01/26 05:45:53;;;;;;;124.15;39.13;;;;;;;-0.32;100.00;100442.91;10505417;28;20064;-74
2023/01/26 05:50:56;;;;;;;114.63;39.47;;;;;;;-0.26;100.00;100440.47;10485302;28;20115;-73
2023/01/26 05:55:59;;;;;;;111.85;36.47;;;;;;;-0.24;100.00;100431.03;10490577;22;20046;-74
2023/01/26 06:01:04;;;;;;;122.55;39.35;;;;;;;-0.22;100.00;100434.53;10404246;28;20054;-73
2023/01/26 06:06:15;;;;;;;123.22;39.45;;;;;;;-0.28;100.00;100431.81;10389559;28;20395;-75
2023/01/26 06:11:32;;;;;;;131.70;42.78;;;;;;;-0.42;100.00;100433.28;10404653;28;20581;-78
2023/01/26 06:16:40;;;;;;;133.70;44.03;;;;;;;-0.23;100.00;100437.91;10405816;28;20088;-77
2023/01/26 06:21:43;;;;;;;124.38;44.75;;;;;;;-0.19;100.00;100441.44;10426583;28;20120;-78
2023/01/26 06:26:48;;;;;;;130.73;47.55;;;;;;;-0.34;100.00;100450.66;10407818;28;20059;-78
2023/01/26 06:31:52;;;;;;;127.07;45.20;;;;;;;-0.18;100.00;100443.16;10408883;28;20041;-78
2023/01/26 06:36:55;;;;;;;123.47;44.35;;;;;;;-0.33;100.00;100446.34;10406774;28;20048;-78
2023/01/26 06:42:02;;;;;;;114.97;44.30;;;;;;;-0.37;100.00;100444.56;10403888;28;20050;-77
2023/01/26 06:47:06;;;;;;;120.55;47.88;;;;;;;-0.46;100.00;100441.78;10407246;28;20128;-78
2023/01/26 06:52:30;;;;;;;129.50;49.60;;;;;;;-0.46;100.00;100442.66;10406099;28;20111;-78
2023/01/26 06:57:40;;;;;;;133.35;50.75;;;;;;;-0.48;100.00;100435.75;10404805;28;20042;-78
2023/01/26 07:03:05;;;;;;;124.60;49.75;;;;;;;-0.46;100.00;100441.78;10380799;28;20082;-78
2023/01/26 07:08:07;;;;;;;134.95;50.92;;;;;;;-0.38;100.00;100441.09;10405505;28;20053;-78
2023/01/26 07:13:09;;;;;;;108.07;47.13;;;;;;;-0.38;100.00;100438.53;10404231;28;20045;-77
2023/01/26 07:18:11;;;;;;;125.85;48.78;;;;;;;-0.33;100.00;100433.44;10421480;28;20080;-77
2023/01/26 07:23:12;;;;;;;115.05;48.55;;;;;;;-0.39;100.00;100435.91;10400723;28;20053;-78
2023/01/26 07:28:14;;;;;;;113.22;50.30;;;;;;;-0.32;100.00;100428.28;10421095;28;20049;-78
2023/01/26 07:33:17;;;;;;;114.38;50.45;;;;;;;-0.31;100.00;100429.16;10422111;28;20048;-78
2023/01/26 07:38:18;;;;;;;122.25;51.95;;;;;;;-0.15;100.00;100431.19;10409544;28;20117;-78
2023/01/26 07:43:20;;;;;;;106.25;48.72;;;;;;;-0.23;100.00;100427.59;10429399;28;20063;-79
2023/01/26 07:48:23;;;;;;;112.07;49.13;;;;;;;-0.38;100.00;100435.06;10401066;28;20041;-78
2023/01/26 07:53:28;;;;;;;121.43;50.63;;;;;;;-0.42;100.00;100430.69;10402834;28;20041;-78
2023/01/26 07:58:29;;;;;;;120.47;51.50;;;;;;;-0.31;100.00;100440.38;10401611;28;20049;-79
2023/01/26 08:03:31;;;;;;;112.30;49.53;;;;;;;-0.16;100.00;100434.63;10418601;28;20057;-77
2023/01/26 08:08:33;;;;;;;126.75;50.58;;;;;;;-0.33;100.00;100438.59;10419098;28;20491;-78
2023/01/26 08:13:35;;;;;;;128.75;52.53;;;;;;;-0.29;100.00;100440.41;10419808;28;20038;-78
2023/01/26 08:18:38;;;;;;;128.57;53.17;;;;;;;-0.29;100.00;100427.50;10400418;28;20053;-78
2023/01/26 08:23:40;;;;;;;131.85;50.80;;;;;;;-0.19;100.00;100434.56;10399669;28;20045;-78
2023/01/26 08:28:43;;;;;;;125.10;51.92;;;;;;;-0.18;100.00;100428.53;10405071;28;20057;-77
2023/01/26 08:33:47;;;;;;;121.55;52.13;;;;;;;-0.17;100.00;100438.06;10424424;28;20116;-78
2023/01/26 08:38:49;;;;;;;122.97;47.65;;;;;;;-0.36;100.00;100431.66;10430586;28;20054;-77
2023/01/26 08:43:52;;;;;;;109.28;43.35;;;;;;;-0.42;100.00;100425.53;10412532;28;20057;-79
2023/01/26 08:48:53;;;;;;;108.60;43.25;;;;;;;-0.38;100.00;100417.84;10416501;28;20049;-77
2023/01/26 08:53:55;;;;;;;105.07;41.97;;;;;;;-0.27;100.00;100421.53;10408689;28;20574;-79
2023/01/26 08:58:58;;;;;;;96.40;41.15;;;;;;;-0.17;100.00;100419.09;10409036;28;20046;-77
2023/01/26 09:04:02;;;;;;;104.45;41.90;;;;;;;-0.41;100.00;100429.84;10407820;28;20052;-78
2023/01/26 09:09:03;;;;;;;116.65;42.58;;;;;;;-0.35;100.00;100442.88;10409901;28;20081;-77
2023/01/26 09:14:05;;;;;;;102.53;41.38;;;;;;;-0.26;100.00;100433.59;10411354;28;20411;-78
2023/01/26 09:19:07;;;;;;;112.07;42.53;;;;;;;-0.39;100.00;100436.78;10424392;28;20053;-79
2023/01/26 09:24:09;;;;;;;122.88;44.75;;;;;;;-0.41;100.00;100437.59;10426606;28;20387;-78
2023/01/26 09:29:11;;;;;;;126.20;44.70;;;;;;;-0.46;100.00;100445.25;10425240;28;20398;-78
2023/01/26 09:34:13;;;;;;;121.20;41.97;;;;;;;-0.47;100.00;100450.38;10425083;28;20080;-77
2023/01/26 09:39:15;;;;;;;107.43;40.33;;;;;;;-0.37;100.00;100454.88;10405970;28;20429;-79
2023/01/26 09:44:22;;;;;;;118.00;41.58;;;;;;;-0.36;100.00;100452.31;10405384;28;20049;-77
2023/01/26 09:49:42;;;;;;;112.80;39.58;;;;;;;-0.42;100.00;100444.47;10403942;28;20064;-77
2023/01/26 09:54:48;;;;;;;100.40;38.13;;;;;;;-0.44;100.00;100455.59;10423649;28;20041;-78
2023/01/26 10:00:01;;;;;;;111.63;41.47;;;;;;;-0.39;100.00;100457.44;10408628;28;20046;-78
2023/01/26 10:06:00;;;;;;;109.93;38.72;;;;;;;-0.33;100.00;100457.56;10425120;28;20042;-78
2023/01/26 10:11:42;;;;;;;96.47;39.92;;;;;;;-0.25;100.00;100457.69;10369570;28;20049;-78
2023/01/26 10:16:48;;;;;;;102.28;41.53;;;;;;;-0.27;100.00;100449.94;10409267;28;20037;-78
2023/01/26 10:21:51;;;;;;;89.07;39.60;;;;;;;-0.22;100.00;100442.28;10422867;28;20038;-77
2023/01/26 10:26:57;;;;;;;100.25;39.88;;;;;;;-0.24;100.00;100441.34;10421837;28;20062;-78
2023/01/26 10:31:58;;;;;;;97.07;39.53;;;;;;;-0.19;100.00;100442.31;10422394;28;20115;-78
2023/01/26 10:37:28;;;;;;;92.65;37.15;;;;;;;-0.36;100.00;100443.69;10420175;28;20112;-77
2023/01/26 10:42:32;;;;;;;86.75;39.25;;;;;;;-0.17;100.00;100430.31;10403536;28;20065;-77
2023/01/26 10:47:34;;;;;;;99.68;40.00;;;;;;;-0.21;100.00;100420.75;10420003;28;20038;-76
2023/01/26 10:52:36;;;;;;;101.47;42.10;;;;;;;-0.27;100.00;100421.53;10401532;28;20569;-77
2023/01/26 10:57:40;;;;;;;99.65;42.10;;;;;;;-0.45;100.00;100428.91;10419891;28;20048;-78
2023/01/26 11:02:49;;;;;;;111.35;44.03;;;;;;;-0.39;100.00;100415.25;10402040;28;20061;-77
2023/01/26 11:07:57;;;;;;;105.55;43.20;;;;;;;-0.39;100.00;100416.13;10402685;28;20048;-73
2023/01/26 11:13:19;;;;;;;113.22;41.38;;;;;;;-0.38;100.00;100411.81;10417947;28;20041;-75
2023/01/26 11:18:30;;;;;;;103.28;42.33;;;;;;;-0.49;100.00;100418.47;10417968;28;20049;-75
2023/01/26 11:23:57;;;;;;;101.72;40.30;;;;;;;-0.37;100.00;100416.13;10400055;28;20133;-74
2023/01/26 11:29:17;;;;;;;;;;;;;;;-0.34;100.00;100409.31;10417876;28;20049;-73
2023/01/26 11:34:37;;;;;;;101.55;37.15;;;;;;;-0.32;100.00;100397.28;10416161;28;19925;-73
2023/01/26 11:39:57;;;;;;;93.85;39.75;;;;;;;-0.48;100.00;100394.44;10417390;28;20057;-73
2023/01/26 11:45:02;;;;;;;94.28;39.45;;;;;;;-0.48;100.00;100386.69;10399976;28;20049;-75
2023/01/26 11:50:22;;;;;;;92.07;38.53;;;;;;;-0.55;100.00;100378.81;10417180;28;20076;-74
2023/01/26 11:55:27;;;;;;;88.93;35.40;;;;;;;-0.52;100.00;100368.53;10400557;28;20069;-75
2023/01/26 12:00:41;;;;;;;84.53;35.38;;;;;;;-0.55;100.00;100367.59;10418276;28;20490;-75
2023/01/26 12:05:48;;;;;;;97.50;35.78;;;;;;;-0.63;100.00;100362.28;10403974;28;20045;-78
2023/01/26 12:11:22;;;;;;;83.63;35.00;;;;;;;-0.53;100.00;100360.78;10429707;28;20487;-76
2023/01/26 12:16:35;;;;;;;83.70;34.03;;;;;;;-0.33;100.00;100346.47;10415063;28;20044;-78
2023/01/26 12:21:42;;;;;;;77.50;32.08;;;;;;;-0.48;100.00;100345.38;10426702;28;20045;-78
2023/01/26 12:26:48;;;;;;;73.72;31.88;;;;;;;-0.45;100.00;100342.81;10435299;28;20049;-77
2023/01/26 12:32:11;;;;;;;73.65;33.30;;;;;;;-0.31;100.00;100347.41;10417659;28;20156;-78
2023/01/26 12:37:46;;;;;;;73.72;33.58;;;;;;;-0.58;100.00;100344.31;10436756;28;20102;-78
2023/01/26 12:43:23;;;;;;;61.08;30.02;;;;;;;-0.59;100.00;100332.25;10420766;28;20059;-79
2023/01/26 12:48:35;;;;;;;71.32;29.05;;;;;;;-0.57;100.00;100336.59;10438939;28;20037;-79
2023/01/26 12:54:00;;;;;;;71.30;31.20;;;;;;;-0.48;100.00;100328.16;10420987;28;20111;-77
2023/01/26 12:59:38;;;;;;;57.75;26.65;;;;;;;-0.42;100.00;100317.91;10417492;28;20084;-77
2023/01/26 13:04:49;;;;;;;53.20;25.08;;;;;;;-0.38;100.00;100309.38;10271269;29;20063;-78
2023/01/26 13:10:19;;;;;;;53.03;26.17;;;;;;;-0.60;100.00;100307.28;10273768;28;20058;-78
2023/01/26 13:15:27;;;;;;;54.35;26.13;;;;;;;-0.72;100.00;100312.22;10257018;28;20051;-78
2023/01/26 13:20:48;;;;;;;51.67;26.05;;;;;;;-0.74;100.00;100312.19;10266683;28;20403;-79
2023/01/26 13:26:18;;;;;;;54.83;27.02;;;;;;;-0.63;100.00;100322.69;10261521;28;20089;-79
2023/01/26 13:31:32;;;;;;;56.10;26.48;;;;;;;-0.68;100.00;100314.00;10265205;29;20055;-78
2023/01/26 13:36:37;;;;;;;59.15;26.45;;;;;;;-0.82;100.00;100313.75;10302702;28;20047;-79
2023/01/26 13:41:46;;;;;;;54.15;26.25;;;;;;;-0.78;100.00;100305.22;10409069;28;20061;-78
2023/01/26 13:46:57;;;;;;;53.97;26.33;;;;;;;-0.77;100.00;100314.72;10425746;28;20107;-77
2023/01/26 13:51:59;;;;;;;58.17;28.20;;;;;;;-0.69;100.00;100312.28;10409978;28;20054;-78
2023/01/26 13:57:06;;;;;;;59.83;28.05;;;;;;;-0.86;100.00;100312.81;10426800;28;20060;-78
2023/01/26 14:02:21;;;;;;;42.40;25.50;;;;;;;-0.89;100.00;100320.50;10430387;28;20093;-80
2023/01/26 14:07:36;;;;;;;45.72;25.52;;;;;;;-0.81;100.00;100318.06;10410876;28;20101;-78
2023/01/26 14:12:45;;;;;;;43.05;24.98;;;;;;;-0.80;100.00;100312.97;10411490;28;20455;-78
2023/01/26 14:17:57;;;;;;;39.38;24.45;;;;;;;-0.79;100.00;100316.41;10431097;28;20132;-78
2023/01/26 14:23:17;;;;;;;47.42;26.73;;;;;;;-0.91;100.00;100311.00;10425943;28;20046;-78
2023/01/26 14:28:21;;;;;;;34.75;23.70;;;;;;;-0.89;100.00;100306.72;10425367;28;20041;-79
2023/01/26 14:33:24;;;;;;;38.58;23.48;;;;;;;-0.85;100.00;100313.69;10430352;28;20038;-79
2023/01/26 14:38:38;;;;;;;36.78;24.17;;;;;;;-0.90;100.00;100307.56;10406135;28;20048;-78
2023/01/26 14:43:39;;;;;;;36.28;23.10;;;;;;;-0.56;100.00;100320.25;10424069;28;20061;-78
2023/01/26 14:48:56;;;;;;;36.55;24.80;;;;;;;-0.81;100.00;100312.91;10423272;28;20406;-78
2023/01/26 14:54:00;;;;;;;;;;;;;;;-0.79;100.00;100316.41;10407466;28;20080;-77
2023/01/26 14:59:03;;;;;;;38.42;24.73;;;;;;;-0.74;100.00;100319.06;10406689;28;19929;-77
2023/01/26 15:04:24;;;;;;;39.72;26.65;;;;;;;-0.86;100.00;100315.41;10426122;28;20041;-77
2023/01/26 15:09:27;;;;;;;36.38;24.70;;;;;;;-0.82;100.00;100316.34;10427770;28;20072;-76
2023/01/26 15:14:47;;;;;;;39.63;26.58;;;;;;;-0.97;100.00;100334.09;10407764;28;20128;-77
2023/01/26 15:19:48;;;;;;;34.97;23.25;;;;;;;-0.80;100.00;100328.44;10424919;28;20049;-78
2023/01/26 15:25:00;;;;;;;30.17;23.55;;;;;;;-0.87;100.00;100326.56;10405806;28;20116;-77
2023/01/26 15:30:03;;;;;;;28.98;21.85;;;;;;;-0.92;100.00;100333.38;10414354;28;20049;-78
2023/01/26 15:35:26;;;;;;;26.23;22.63;;;;;;;-0.92;100.00;100335.06;10416502;28;20037;-79
2023/01/26 15:40:29;;;;;;;23.02;20.58;;;;;;;-0.95;100.00;100337.59;10394532;28;20053;-79
2023/01/26 15:45:35;;;;;;;24.58;18.85;;;;;;;-0.92;100.00;100337.66;10407146;28;20537;-78
2023/01/26 15:50:37;;;;;;;22.45;19.55;;;;;;;-0.87;100.00;100343.78;10428763;28;20045;-79
2023/01/26 15:55:39;;;;;;;36.17;21.92;;;;;;;-0.78;100.00;100341.38;10429279;28;20041;-80
2023/01/26 16:00:41;;;;;;;24.90;20.20;;;;;;;-0.85;100.00;100345.53;10430479;28;20169;-78
2023/01/26 16:05:46;;;;;;;26.33;20.83;;;;;;;-1.05;100.00;100346.88;10398945;28;20049;-80
2023/01/26 16:10:48;;;;;;;32.30;24.02;;;;;;;-1.01;100.00;100351.25;10434474;28;20075;-79
2023/01/26 16:15:52;;;;;;;32.75;22.45;;;;;;;-1.03;100.00;100353.78;10419285;28;20096;-80
2023/01/26 16:20:54;;;;;;;35.00;23.52;;;;;;;-1.12;100.00;100353.59;10440849;28;20045;-79
2023/01/26 16:25:56;;;;;;;32.42;24.05;;;;;;;-1.14;100.00;100357.88;10440482;28;20093;-79
2023/01/26 16:30:58;;;;;;;35.15;26.23;;;;;;;-1.06;100.00;100355.44;10440009;28;20407;-79
2023/01/26 16:36:03;;;;;;;36.85;26.27;;;;;;;-1.39;100.00;100359.03;10433920;28;20034;-79
2023/01/26 16:41:11;;;;;;;46.10;28.45;;;;;;;-1.35;100.00;100354.84;10413248;28;20057;-79
2023/01/26 16:46:13;;;;;;;41.30;28.48;;;;;;;-1.24;100.00;100358.50;10434864;28;20112;-79
2023/01/26 16:51:22;;;;;;;41.83;27.80;;;;;;;-1.14;100.00;100360.44;10440623;28;20510;-79
2023/01/26 16:56:24;;;;;;;37.67;26.45;;;;;;;-1.31;100.00;100359.22;10424555;28;20480;-79
2023/01/26 17:01:32;;;;;;;38.28;26.65;;;;;;;-1.40;100.00;100351.28;10424231;28;20049;-79
2023/01/26 17:06:34;;;;;;;36.92;27.23;;;;;;;-1.41;100.00;100353.00;10441664;28;20075;-79
2023/01/26 17:11:36;;;;;;;30.77;23.30;;;;;;;-1.49;100.00;100359.69;10442671;28;20109;-79
2023/01/26 17:16:38;;;;;;;39.13;25.58;;;;;;;-1.51;100.00;100356.19;10440601;28;20045;-78
2023/01/26 17:21:40;;;;;;;45.25;26.65;;;;;;;-1.26;100.00;100362.75;10443702;28;20053;-79
2023/01/26 17:26:41;;;;;;;40.33;27.33;;;;;;;-1.43;100.00;100362.41;10399355;28;20095;-79
2023/01/26 17:31:43;;;;;;;29.98;22.88;;;;;;;-1.57;100.00;100372.41;10439946;28;20047;-78
2023/01/26 17:36:45;;;;;;;29.75;22.83;;;;;;;-1.49;100.00;100377.75;10436132;28;20041;-78
2023/01/26 17:41:47;;;;;;;28.45;24.00;;;;;;;-1.42;100.00;100376.16;10434748;28;20052;-79
2023/01/26 17:46:49;;;;;;;31.67;23.42;;;;;;;-1.34;100.00;100378.06;10437573;28;20064;-79
2023/01/26 17:51:51;;;;;;;31.42;23.70;;;;;;;-1.38;100.00;100380.53;10437884;28;20084;-79
2023/01/26 18:02:20;;;;;;;32.88;24.40;;;;;;;-1.34;100.00;100377.19;10324950;28;20042;-74
2023/01/26 18:07:23;;;;;;;19.45;17.55;;;;;;;-1.41;100.00;100385.66;10338061;28;20050;-74
2023/01/26 18:12:25;;;;;;;18.60;16.90;;;;;;;-1.37;100.00;100390.91;10326667;28;20101;-75
2023/01/26 18:17:27;;;;;;;19.60;17.80;;;;;;;-1.34;100.00;100384.94;10323644;28;20050;-75
2023/01/26 18:22:29;;;;;;;18.38;16.33;;;;;;;-1.44;100.00;100390.72;10321615;28;20057;-75
2023/01/26 18:27:31;;;;;;;18.75;17.00;;;;;;;-1.45;100.00;100389.88;10338309;28;20117;-74
2023/01/26 18:32:33;;;;;;;21.85;17.90;;;;;;;-1.55;100.00;100393.06;10341815;28;20415;-75
2023/01/26 18:37:35;;;;;;;21.38;18.10;;;;;;;-1.43;100.00;100392.47;10338064;28;20045;-75
2023/01/26 18:42:36;;;;;;;21.05;17.67;;;;;;;-1.47;100.00;100390.66;10339941;28;20098;-75
2023/01/26 18:47:38;;;;;;;23.85;18.35;;;;;;;-1.53;100.00;100399.13;10342373;28;20038;-75
2023/01/26 18:52:40;;;;;;;29.00;21.08;;;;;;;-1.43;100.00;100402.78;10327191;28;20049;-74
2023/01/26 18:57:42;;;;;;;26.23;19.15;;;;;;;-1.65;100.00;100406.56;10325159;28;20054;-75
2023/01/26 19:02:44;;;;;;;29.48;22.13;;;;;;;-1.70;100.00;100410.75;10304861;28;20046;-74
2023/01/26 19:07:46;;;;;;;27.98;21.65;;;;;;;-1.62;100.00;100409.22;10360001;28;20038;-74
2023/01/26 19:12:50;;;;;;;38.38;25.55;;;;;;;-1.57;100.00;100405.06;10355000;28;20050;-75
2023/01/26 19:18:20;;;;;;;44.92;26.77;;;;;;;-1.64;100.00;100398.00;10341191;28;20047;-75
2023/01/26 19:23:22;;;;;;;58.42;31.65;;;;;;;-1.17;100.00;100395.63;10343563;28;20046;-75
2023/01/26 19:28:25;;;;;;;54.80;27.65;;;;;;;-1.21;100.00;100396.38;10338320;28;20058;-75
2023/01/26 19:33:30;;;;;;;51.03;26.63;;;;;;;-1.52;100.00;100398.28;10338157;28;20050;-75
2023/01/26 19:38:35;;;;;;;52.22;27.27;;;;;;;-1.17;100.00;100395.63;10363262;28;20041;-75
2023/01/26 19:43:37;;;;;;;57.10;27.65;;;;;;;-1.39;100.00;100397.72;10377820;28;20056;-76
2023/01/26 19:48:39;;;;;;;51.80;28.20;;;;;;;-1.50;100.00;100396.63;10381918;28;20085;-76
2023/01/26 19:53:45;;;;;;;46.42;27.02;;;;;;;-1.02;100.00;100399.41;10359593;28;20062;-76
2023/01/26 19:58:52;;;;;;;49.60;25.60;;;;;;;-1.09;100.00;100399.22;10383764;28;20065;-75
2023/01/26 20:03:58;;;;;;;;;;;;;;;-1.45;100.00;100399.31;10377426;28;20049;-76
2023/01/26 20:09:06;;;;;;;43.13;24.33;;;;;;;-1.52;100.00;100399.16;10354784;28;20379;-75
2023/01/26 20:14:09;;;;;;;48.28;25.52;;;;;;;-1.57;100.00;100398.19;10334343;28;20512;-76
2023/01/26 20:19:12;;;;;;;55.60;26.48;;;;;;;-1.46;100.00;100398.44;10339308;28;20043;-76
2023/01/26 20:24:15;;;;;;;48.65;24.98;;;;;;;-1.34;100.00;100397.81;10319108;28;20432;-76
2023/01/26 20:29:18;;;;;;;45.80;24.00;;;;;;;-1.53;100.00;100388.81;10334466;28;20046;-76
2023/01/26 20:34:20;;;;;;;52.42;24.67;;;;;;;-1.65;100.00;100375.66;10342519;28;20141;-75
2023/01/26 20:39:25;;;;;;;43.80;25.92;;;;;;;-1.61;100.00;100370.59;10344391;28;20038;-76
2023/01/26 20:44:27;;;;;;;43.92;24.13;;;;;;;-1.69;100.00;100364.38;10345740;28;20407;-76
2023/01/26 20:49:29;;;;;;;53.97;26.33;;;;;;;-1.71;100.00;100372.94;10325001;28;20053;-76
2023/01/26 20:54:30;;;;;;;49.58;26.15;;;;;;;-1.63;100.00;100374.84;10342392;28;20042;-76
2023/01/26 20:59:32;;;;;;;60.55;26.40;;;;;;;-1.57;100.00;100376.69;10342905;28;20074;-76
2023/01/26 21:04:35;;;;;;;57.80;27.25;;;;;;;-1.55;100.00;100382.75;10343631;28;20057;-76
2023/01/26 21:09:37;;;;;;;58.88;28.02;;;;;;;-1.68;100.00;100383.28;10341153;28;20046;-75
2023/01/26 21:14:38;;;;;;;58.97;27.65;;;;;;;-1.70;100.00;100392.72;10340237;28;20046;-76
2023/01/26 21:19:40;;;;;;;58.13;27.45;;;;;;;-1.70;100.00;100400.44;10340918;28;20105;-76
2023/01/26 21:24:42;;;;;;;43.55;24.83;;;;;;;-1.43;100.00;100402.78;10343739;28;20145;-75
2023/01/26 21:29:44;;;;;;;45.78;23.25;;;;;;;-1.66;100.00;100397.09;10341841;28;20046;-75
2023/01/26 21:34:46;;;;;;;43.58;24.13;;;;;;;-1.48;100.00;100382.06;10341760;28;20518;-76
2023/01/26 21:39:47;;;;;;;45.63;25.58;;;;;;;-1.63;100.00;100385.16;10341407;28;20045;-76
2023/01/26 21:50:10;;;;;;;52.22;25.23;;;;;;;-1.70;100.00;100393.56;10342982;28;20050;-76
2023/01/26 21:55:12;;;;;;;48.53;25.88;;;;;;;-1.63;100.00;100395.47;10341064;28;20089;-75
2023/01/26 22:00:14;;;;;;;44.97;25.90;;;;;;;-1.59;100.00;100397.28;10353370;28;20106;-76
2023/01/26 22:05:16;;;;;;;59.33;26.90;;;;;;;-1.62;100.00;100398.91;10349530;28;20530;-75
2023/01/26 22:10:19;;;;;;;47.13;24.50;;;;;;;-1.43;100.00;100398.50;10357642;28;20102;-75
2023/01/26 22:15:21;;;;;;;49.67;25.88;;;;;;;-1.54;100.00;100390.53;10353956;28;20042;-74
2023/01/26 22:20:23;;;;;;;53.75;27.17;;;;;;;-1.65;100.00;100393.69;10332639;28;20492;-76
2023/01/26 22:25:25;;;;;;;46.00;24.70;;;;;;;-1.58;100.00;100393.88;10344088;28;20114;-76
2023/01/26 22:30:27;;;;;;;58.50;26.63;;;;;;;-1.55;100.00;100393.06;10341740;28;20046;-76
2023/01/26 22:35:30;;;;;;;55.05;24.48;;;;;;;-1.35;100.00;100383.19;10340611;28;20038;-74
2023/01/26 22:40:32;;;;;;;51.53;26.48;;;;;;;-1.48;100.00;100378.59;10338550;28;20078;-75
2023/01/26 22:45:34;;;;;;;56.50;26.80;;;;;;;-1.57;100.00;100363.81;10323269;28;20042;-77
2023/01/26 22:50:35;;;;;;;53.85;25.67;;;;;;;-1.57;100.00;100374.13;10339831;28;20068;-76
2023/01/26 22:55:39;;;;;;;65.88;28.38;;;;;;;-1.84;100.00;100370.06;10345233;28;20456;-75
2023/01/26 23:00:41;;;;;;;72.35;28.02;;;;;;;-1.78;100.00;100377.94;10336794;28;20129;-76
2023/01/26 23:05:44;;;;;;;71.18;29.60;;;;;;;-1.81;100.00;100374.44;10336954;28;20042;-76
2023/01/26 23:10:46;;;;;;;80.07;29.25;;;;;;;-1.69;100.00;100377.28;10341022;28;20052;-76
2023/01/26 23:15:49;;;;;;;70.85;29.48;;;;;;;-1.71;100.00;100384.13;10353323;28;20069;-74
2023/01/26 23:20:51;;;;;;;70.88;29.00;;;;;;;-1.73;100.00;100382.31;10340294;28;20054;-75
2023/01/26 23:25:53;;;;;;;71.10;30.60;;;;;;;-1.74;100.00;100376.31;10337361;28;20038;-76
2023/01/26 23:30:56;;;;;;;66.55;27.83;;;;;;;-1.70;100.00;100384.97;10337571;28;20053;-75
2023/01/26 23:35:58;;;;;;;57.58;27.65;;;;;;;-1.78;100.00;100385.66;10339128;28;20077;-75
2023/01/26 23:41:01;;;;;;;59.40;27.45;;;;;;;-1.75;100.00;100378.84;10335650;28;20492;-74